Time;durP1;ratioP1;P1;durP2;ratioP2;P2;SDS_P1;SDS_P2;PMS_P1;PMS_P2;Temp;Humidity;BMP_temperature;BMP_pressure;BME280_temperature;BME280_humidity;BME280_pressure;Samples;Min_cycle;Max_cycle;Signal;HPM_P1;HPM_P2
2023/08/02 00:02:01;;;;;;;0.63;0.63;;;;;15.70;95227.00;;;;5033974;28;20267;-60
2023/08/02 00:04:29;;;;;;;0.70;0.70;;;;;15.70;95224.00;;;;5033796;28;20197;-59
2023/08/02 00:06:56;;;;;;;0.50;0.50;;;;;15.70;95226.00;;;;5033070;28;20217;-60
2023/08/02 00:09:27;;;;;;;0.73;0.73;;;;;15.60;95228.00;;;;5032512;28;20296;-59
2023/08/02 00:11:54;;;;;;;0.40;0.40;;;;;15.60;95221.00;;;;5033758;28;20201;-59
2023/08/02 00:14:22;;;;;;;0.50;0.50;;;;;15.60;95217.00;;;;5033601;28;20201;-60
2023/08/02 00:16:49;;;;;;;0.60;0.60;;;;;15.50;95213.00;;;;5032256;28;20220;-60
2023/08/02 00:19:17;;;;;;;0.60;0.60;;;;;15.60;95213.00;;;;5034033;28;20197;-61
2023/08/02 00:21:44;;;;;;;0.60;0.60;;;;;15.50;95198.00;;;;5032476;28;20193;-59
2023/08/02 00:24:12;;;;;;;1.03;1.03;;;;;15.50;95192.00;;;;5033552;28;20193;-60
2023/08/02 00:26:41;;;;;;;0.57;0.57;;;;;15.60;95184.00;;;;5033358;28;20212;-60
2023/08/02 00:29:08;;;;;;;0.50;0.50;;;;;15.60;95180.00;;;;5033420;28;20201;-59
2023/08/02 00:31:35;;;;;;;0.77;0.77;;;;;15.40;95181.00;;;;5033446;28;20227;-59
2023/08/02 00:34:03;;;;;;;0.60;0.60;;;;;15.40;95170.00;;;;5033787;28;20211;-59
2023/08/02 00:36:30;;;;;;;0.70;0.70;;;;;15.20;95163.00;;;;5033431;28;20215;-59
2023/08/02 00:38:58;;;;;;;0.90;0.90;;;;;15.10;95173.00;;;;5033181;28;20536;-59
2023/08/02 00:41:25;;;;;;;0.87;0.87;;;;;15.20;95167.00;;;;5033420;28;20197;-61
2023/08/02 00:43:54;;;;;;;0.40;0.40;;;;;15.00;95165.00;;;;5033823;28;20193;-59
2023/08/02 00:46:21;;;;;;;0.60;0.60;;;;;15.00;95162.00;;;;5033433;28;20208;-59
2023/08/02 00:48:49;;;;;;;0.80;0.80;;;;;15.00;95159.00;;;;5033815;28;20192;-59
2023/08/02 00:51:19;;;;;;;0.80;0.80;;;;;15.10;95152.00;;;;5033284;28;20188;-60
2023/08/02 00:53:47;;;;;;;0.40;0.40;;;;;14.90;95154.00;;;;5033641;28;20208;-60
2023/08/02 00:56:16;;;;;;;1.17;0.97;;;;;15.00;95155.00;;;;5033458;28;20212;-59
2023/08/02 00:58:44;;;;;;;0.70;0.70;;;;;15.00;95155.00;;;;5033655;28;20204;-60
2023/08/02 01:01:13;;;;;;;0.50;0.50;;;;;15.00;95147.00;;;;5033531;28;20201;-59
2023/08/02 01:03:43;;;;;;;0.70;0.70;;;;;15.10;95168.00;;;;5033017;28;20232;-59
2023/08/02 01:06:16;;;;;;;0.77;0.77;;;;;15.10;95170.00;;;;5031767;28;20216;-59
2023/08/02 01:08:47;;;;;;;1.10;1.10;;;;;15.00;95176.00;;;;5033611;28;20574;-59
2023/08/02 01:11:20;;;;;;;0.60;0.60;;;;;15.00;95176.00;;;;5033064;28;20672;-61
2023/08/02 01:13:51;;;;;;;0.80;0.80;;;;;15.00;95169.00;;;;5033151;28;20193;-59
2023/08/02 01:16:23;;;;;;;0.70;0.70;;;;;14.90;95157.00;;;;5033278;28;20220;-59
2023/08/02 01:18:50;;;;;;;0.60;0.60;;;;;15.00;95147.00;;;;5035934;28;20189;-59
2023/08/02 01:21:19;;;;;;;0.50;0.50;;;;;15.10;95138.00;;;;5036956;28;20557;-59
2023/08/02 01:23:47;;;;;;;0.70;0.70;;;;;15.10;95136.00;;;;5037239;28;20200;-59
2023/08/02 01:26:15;;;;;;;0.70;0.70;;;;;15.30;95147.00;;;;5036850;28;20220;-59
2023/08/02 01:28:47;;;;;;;0.97;0.97;;;;;15.20;95143.00;;;;5036839;28;20193;-60
2023/08/02 01:31:16;;;;;;;0.50;0.50;;;;;15.30;95149.00;;;;5037112;28;20543;-59
2023/08/02 01:33:49;;;;;;;0.60;0.60;;;;;15.30;95139.00;;;;5035289;28;20250;-59
2023/08/02 01:36:19;;;;;;;0.60;0.60;;;;;15.10;95134.00;;;;5036986;28;20275;-59
2023/08/02 01:38:46;;;;;;;0.73;0.73;;;;;15.00;95149.00;;;;5037010;28;20546;-59
2023/08/02 01:41:13;;;;;;;0.60;0.60;;;;;14.90;95142.00;;;;5037077;28;20192;-59
2023/08/02 01:43:41;;;;;;;0.50;0.50;;;;;14.90;95138.00;;;;5036890;28;20197;-60
2023/08/02 01:46:08;;;;;;;0.53;0.53;;;;;14.80;95125.00;;;;5036535;28;20219;-59
2023/08/02 01:48:36;;;;;;;2.67;1.10;;;;;14.90;95115.00;;;;5036405;28;20197;-60
2023/08/02 01:51:03;;;;;;;0.80;0.80;;;;;15.00;95105.00;;;;5036434;28;20541;-60
2023/08/02 01:53:32;;;;;;;0.50;0.50;;;;;15.00;95110.00;;;;5035139;28;20216;-60
2023/08/02 01:56:00;;;;;;;0.57;0.57;;;;;15.00;95105.00;;;;5036706;28;20587;-59
2023/08/02 01:58:29;;;;;;;1.47;1.37;;;;;15.10;95110.00;;;;5036298;28;20242;-60
2023/08/02 02:00:56;;;;;;;0.50;0.50;;;;;15.00;95105.00;;;;5036289;28;20280;-60
2023/08/02 02:03:24;;;;;;;0.60;0.60;;;;;15.00;95104.00;;;;5036428;28;20189;-59
2023/08/02 02:05:55;;;;;;;4.07;0.97;;;;;15.00;95092.00;;;;5035965;28;20578;-59
2023/08/02 02:08:24;;;;;;;0.50;0.50;;;;;15.10;95088.00;;;;5035914;28;20193;-61
2023/08/02 02:10:54;;;;;;;4.60;1.10;;;;;14.90;95087.00;;;;5036331;28;20193;-59
2023/08/02 02:13:24;;;;;;;0.50;0.50;;;;;14.90;95086.00;;;;5035919;28;20220;-59
2023/08/02 02:15:52;;;;;;;0.47;0.47;;;;;14.90;95068.00;;;;5036456;28;20220;-60
2023/08/02 02:18:19;;;;;;;0.50;0.50;;;;;14.80;95069.00;;;;5035877;28;20310;-60
2023/08/02 02:20:46;;;;;;;0.43;0.43;;;;;14.80;95061.00;;;;5036207;28;20193;-59
2023/08/02 02:23:14;;;;;;;0.70;0.70;;;;;14.80;95064.00;;;;5035844;28;20273;-60
2023/08/02 02:25:42;;;;;;;0.70;0.70;;;;;14.80;95062.00;;;;5035615;28;20296;-59
2023/08/02 02:28:11;;;;;;;0.57;0.57;;;;;14.80;95060.00;;;;5035050;28;20228;-59
2023/08/02 02:30:39;;;;;;;0.70;0.70;;;;;14.80;95050.00;;;;5035622;28;20726;-60
2023/08/02 02:33:06;;;;;;;0.67;0.67;;;;;14.90;95048.00;;;;5035475;28;20213;-59
2023/08/02 02:35:34;;;;;;;0.80;0.80;;;;;14.90;95044.00;;;;5035360;28;20220;-59
2023/08/02 02:38:01;;;;;;;0.70;0.70;;;;;14.90;95040.00;;;;5035614;28;20197;-59
2023/08/02 02:40:28;;;;;;;0.67;0.67;;;;;14.90;95043.00;;;;5035550;28;20197;-59
2023/08/02 02:42:56;;;;;;;0.57;0.57;;;;;15.00;95038.00;;;;5035441;28;20192;-60
2023/08/02 02:45:25;;;;;;;2.10;1.37;;;;;15.00;95033.00;;;;5035596;28;20303;-59
2023/08/02 02:47:52;;;;;;;9.03;1.20;;;;;15.10;95040.00;;;;5035206;28;20219;-59
2023/08/02 02:50:19;;;;;;;0.50;0.50;;;;;15.10;95031.00;;;;5035812;28;20203;-59
2023/08/02 02:52:47;;;;;;;0.70;0.70;;;;;15.10;95031.00;;;;5035424;28;20239;-59
2023/08/02 02:55:14;;;;;;;0.70;0.70;;;;;15.10;95027.00;;;;5033852;28;20201;-60
2023/08/02 02:57:42;;;;;;;1.80;1.00;;;;;15.10;95021.00;;;;5035030;28;20216;-60
2023/08/02 03:00:10;;;;;;;1.10;1.10;;;;;15.00;95023.00;;;;5035716;28;20213;-59
2023/08/02 03:02:39;;;;;;;1.00;1.00;;;;;15.00;95019.00;;;;5035203;28;20201;-59
2023/08/02 03:05:07;;;;;;;0.90;0.90;;;;;14.90;95012.00;;;;5035320;28;20189;-59
2023/08/02 03:07:34;;;;;;;0.57;0.57;;;;;15.20;95015.00;;;;5035016;28;20675;-59
2023/08/02 03:10:02;;;;;;;1.80;1.03;;;;;15.20;95008.00;;;;5033694;28;20201;-59
2023/08/02 03:12:29;;;;;;;0.60;0.60;;;;;15.20;95005.00;;;;5035152;28;20692;-60
2023/08/02 03:14:57;;;;;;;1.20;0.73;;;;;15.10;95005.00;;;;5033651;28;20545;-61
2023/08/02 03:17:24;;;;;;;1.13;1.10;;;;;15.10;95004.00;;;;5034954;28;20216;-60
2023/08/02 03:19:53;;;;;;;1.20;1.10;;;;;15.00;95004.00;;;;5035176;28;20197;-60
2023/08/02 03:22:20;;;;;;;0.60;0.60;;;;;15.00;95006.00;;;;5034708;28;20203;-60
2023/08/02 03:24:48;;;;;;;0.50;0.50;;;;;15.00;95000.00;;;;5034880;28;20201;-59
2023/08/02 03:27:15;;;;;;;0.93;0.93;;;;;14.90;94992.00;;;;5034846;28;20588;-60
2023/08/02 03:29:43;;;;;;;0.80;0.80;;;;;15.00;94993.00;;;;5034793;28;20200;-60
2023/08/02 03:32:10;;;;;;;0.50;0.50;;;;;14.80;94993.00;;;;5034465;28;20201;-60
2023/08/02 03:34:37;;;;;;;0.60;0.60;;;;;15.00;94990.00;;;;5034476;28;20192;-59
2023/08/02 03:37:07;;;;;;;0.50;0.50;;;;;14.90;94985.00;;;;5033212;28;20243;-60
2023/08/02 03:39:34;;;;;;;0.77;0.77;;;;;15.00;94982.00;;;;5034059;28;20676;-59
2023/08/02 03:42:02;;;;;;;0.60;0.60;;;;;14.80;94983.00;;;;5034040;28;20188;-61
2023/08/02 03:44:29;;;;;;;0.83;0.83;;;;;14.70;94978.00;;;;5034660;28;20200;-60
2023/08/02 03:46:56;;;;;;;1.40;0.90;;;;;14.90;94978.00;;;;5034199;28;20708;-60
2023/08/02 03:49:24;;;;;;;0.67;0.67;;;;;14.80;94957.00;;;;5034101;28;20199;-59
2023/08/02 03:51:51;;;;;;;0.60;0.60;;;;;14.80;94958.00;;;;5034314;28;20709;-60
2023/08/02 03:54:20;;;;;;;0.60;0.60;;;;;14.90;94945.00;;;;5034009;28;20213;-60
2023/08/02 03:56:47;;;;;;;0.50;0.50;;;;;14.90;94936.00;;;;5034188;28;20244;-60
2023/08/02 03:59:15;;;;;;;0.90;0.90;;;;;14.80;94932.00;;;;5034580;28;20193;-60
2023/08/02 04:01:42;;;;;;;1.03;1.03;;;;;14.90;94926.00;;;;5034199;28;20200;-60
2023/08/02 04:04:09;;;;;;;1.03;1.00;;;;;14.80;94932.00;;;;5034823;28;20195;-61
2023/08/02 04:06:37;;;;;;;0.77;0.77;;;;;14.80;94928.00;;;;5034212;28;20224;-60
2023/08/02 04:09:04;;;;;;;1.83;0.70;;;;;15.00;94919.00;;;;5034179;28;20189;-60
2023/08/02 04:11:33;;;;;;;0.57;0.57;;;;;14.90;94900.00;;;;5034102;28;20193;-60
2023/08/02 04:14:00;;;;;;;0.70;0.70;;;;;14.90;94915.00;;;;5033906;28;20707;-60
2023/08/02 04:16:28;;;;;;;0.77;0.77;;;;;14.90;94919.00;;;;5033950;28;20220;-60
2023/08/02 04:18:55;;;;;;;0.60;0.60;;;;;14.80;94920.00;;;;5033803;28;20189;-60
2023/08/02 04:21:23;;;;;;;1.43;1.33;;;;;14.70;94912.00;;;;5033773;28;20193;-60
2023/08/02 04:23:51;;;;;;;2.67;1.53;;;;;14.80;94897.00;;;;5033665;28;20212;-60
2023/08/02 04:26:18;;;;;;;0.80;0.80;;;;;14.70;94895.00;;;;5033641;28;20224;-60
2023/08/02 04:28:47;;;;;;;0.80;0.80;;;;;14.60;94889.00;;;;5033805;28;20189;-60
2023/08/02 04:31:15;;;;;;;0.80;0.80;;;;;14.70;94889.00;;;;5033693;28;20251;-60
2023/08/02 04:33:42;;;;;;;0.50;0.50;;;;;14.80;94888.00;;;;5033425;28;20212;-60
2023/08/02 04:36:10;;;;;;;0.60;0.60;;;;;14.80;94883.00;;;;5033364;28;20216;-60
2023/08/02 04:38:37;;;;;;;1.17;1.17;;;;;14.70;94879.00;;;;5034143;28;20645;-60
2023/08/02 04:41:05;;;;;;;0.60;0.60;;;;;14.80;94883.00;;;;5033681;28;20192;-60
2023/08/02 04:43:32;;;;;;;0.53;0.53;;;;;14.70;94872.00;;;;5033902;28;20223;-61
2023/08/02 04:46:01;;;;;;;0.57;0.57;;;;;14.70;94864.00;;;;5033304;28;20609;-61
2023/08/02 04:48:28;;;;;;;1.07;1.07;;;;;14.70;94865.00;;;;5033403;28;20197;-60
2023/08/02 04:50:56;;;;;;;1.50;0.97;;;;;14.80;94854.00;;;;5032049;28;20616;-61
2023/08/02 04:53:23;;;;;;;0.70;0.70;;;;;14.80;94848.00;;;;5032981;28;20221;-60
2023/08/02 04:55:51;;;;;;;7.73;1.93;;;;;14.80;94853.00;;;;5033275;28;20215;-61
2023/08/02 04:58:18;;;;;;;0.87;0.87;;;;;14.80;94855.00;;;;5033234;28;20207;-60
2023/08/02 05:00:45;;;;;;;4.13;1.10;;;;;14.70;94861.00;;;;5033611;28;20656;-60
2023/08/02 05:03:14;;;;;;;0.93;0.90;;;;;14.70;94855.00;;;;5033342;28;20191;-60
2023/08/02 05:05:42;;;;;;;1.70;1.23;;;;;14.90;94850.00;;;;5033430;28;20553;-60
2023/08/02 05:08:09;;;;;;;0.73;0.57;;;;;14.70;94847.00;;;;5033445;28;20196;-60
2023/08/02 05:10:38;;;;;;;0.70;0.70;;;;;14.90;94843.00;;;;5033517;28;20549;-61
2023/08/02 05:13:06;;;;;;;0.70;0.70;;;;;14.90;94835.00;;;;5033168;28;20253;-60
2023/08/02 05:15:37;;;;;;;2.40;1.37;;;;;14.70;94834.00;;;;5033514;28;20192;-60
2023/08/02 05:18:04;;;;;;;0.77;0.77;;;;;14.80;94831.00;;;;5033214;28;20235;-60
2023/08/02 05:20:33;;;;;;;0.60;0.60;;;;;14.80;94835.00;;;;5033505;28;20223;-60
2023/08/02 05:23:01;;;;;;;1.63;1.37;;;;;14.80;94828.00;;;;5033020;28;20192;-60
2023/08/02 05:25:30;;;;;;;0.67;0.67;;;;;14.80;94833.00;;;;5033549;28;20652;-61
2023/08/02 05:27:58;;;;;;;0.80;0.80;;;;;14.80;94840.00;;;;5033370;28;20200;-60
2023/08/02 05:30:27;;;;;;;0.50;0.50;;;;;14.90;94834.00;;;;5033121;28;20193;-60
2023/08/02 05:32:55;;;;;;;0.70;0.70;;;;;14.90;94838.00;;;;5031528;28;20205;-60
2023/08/02 05:35:23;;;;;;;0.77;0.77;;;;;14.80;94829.00;;;;5033241;28;20606;-60
2023/08/02 05:37:52;;;;;;;0.80;0.80;;;;;14.80;94818.00;;;;5033568;28;20209;-60
2023/08/02 05:40:19;;;;;;;0.80;0.80;;;;;14.70;94821.00;;;;5032810;28;20193;-60
2023/08/02 05:42:47;;;;;;;0.80;0.80;;;;;14.60;94813.00;;;;5033105;28;20653;-60
2023/08/02 05:45:14;;;;;;;0.60;0.60;;;;;14.70;94800.00;;;;5032781;28;20197;-60
2023/08/02 05:47:42;;;;;;;3.03;1.23;;;;;14.70;94788.00;;;;5032909;28;20598;-60
2023/08/02 05:50:09;;;;;;;0.80;0.80;;;;;14.60;94797.00;;;;5032974;28;20192;-60
2023/08/02 05:52:37;;;;;;;0.63;0.63;;;;;14.60;94795.00;;;;5031853;28;20196;-60
2023/08/02 05:55:07;;;;;;;0.97;0.97;;;;;14.50;94791.00;;;;5032803;28;20235;-60
2023/08/02 05:57:34;;;;;;;0.93;0.93;;;;;14.60;94793.00;;;;5032929;28;20229;-60
2023/08/02 06:00:01;;;;;;;1.23;1.23;;;;;14.50;94808.00;;;;5032834;28;20300;-60
2023/08/02 06:02:29;;;;;;;0.60;0.60;;;;;14.40;94801.00;;;;5033296;28;20211;-59
2023/08/02 06:04:56;;;;;;;0.70;0.70;;;;;14.60;94789.00;;;;5034951;28;20200;-58
2023/08/02 06:07:24;;;;;;;1.73;1.63;;;;;14.60;94784.00;;;;5033686;28;20224;-59
2023/08/02 06:09:51;;;;;;;0.90;0.90;;;;;14.70;94774.00;;;;5035645;28;20247;-59
2023/08/02 06:12:20;;;;;;;1.07;1.07;;;;;14.70;94765.00;;;;5034850;28;20200;-58
2023/08/02 06:14:47;;;;;;;1.00;1.00;;;;;14.80;94778.00;;;;5033644;28;20220;-59
2023/08/02 06:17:15;;;;;;;1.97;0.90;;;;;14.70;94760.00;;;;5033793;28;20221;-59
2023/08/02 06:19:42;;;;;;;0.70;0.70;;;;;14.90;94759.00;;;;5031827;28;20200;-59
2023/08/02 06:22:10;;;;;;;0.90;0.90;;;;;15.00;94748.00;;;;5034387;28;20200;-59
2023/08/02 06:24:38;;;;;;;0.57;0.57;;;;;15.20;94745.00;;;;5033177;28;20204;-61
2023/08/02 06:27:05;;;;;;;0.77;0.77;;;;;15.10;94741.00;;;;5033685;28;20308;-61
2023/08/02 06:29:34;;;;;;;0.60;0.60;;;;;15.20;94740.00;;;;5033808;28;20204;-61
2023/08/02 06:32:01;;;;;;;1.00;1.00;;;;;15.30;94743.00;;;;5034406;28;20193;-61
2023/08/02 06:34:29;;;;;;;0.67;0.67;;;;;15.30;94735.00;;;;5034394;28;20220;-61
2023/08/02 06:36:56;;;;;;;0.93;0.93;;;;;15.30;94726.00;;;;5034008;28;20216;-60
2023/08/02 06:39:24;;;;;;;1.00;1.00;;;;;15.10;94730.00;;;;5032832;28;20204;-61
2023/08/02 06:41:51;;;;;;;0.50;0.50;;;;;15.10;94723.00;;;;5033894;28;20223;-60
2023/08/02 06:44:19;;;;;;;0.97;0.87;;;;;15.10;94723.00;;;;5033723;28;20215;-61
2023/08/02 06:46:47;;;;;;;0.90;0.90;;;;;15.10;94722.00;;;;5033783;28;20220;-60
2023/08/02 06:49:15;;;;;;;0.80;0.80;;;;;15.10;94722.00;;;;5033606;28;20563;-61
2023/08/02 06:51:42;;;;;;;0.90;0.90;;;;;15.20;94721.00;;;;5033621;28;20204;-60
2023/08/02 06:54:12;;;;;;;1.23;1.23;;;;;15.30;94708.00;;;;5033668;28;20212;-60
2023/08/02 06:56:39;;;;;;;1.13;1.03;;;;;15.40;94698.00;;;;5033913;28;20244;-60
2023/08/02 06:59:07;;;;;;;2.20;1.63;;;;;15.60;94699.00;;;;5033346;28;20676;-60
2023/08/02 07:01:34;;;;;;;0.83;0.83;;;;;15.60;94710.00;;;;5034534;28;20694;-60
2023/08/02 07:04:03;;;;;;;1.70;0.80;;;;;15.60;94704.00;;;;5034268;28;20189;-60
2023/08/02 07:06:30;;;;;;;0.60;0.60;;;;;15.70;94703.00;;;;5033758;28;20683;-60
2023/08/02 07:08:58;;;;;;;0.87;0.87;;;;;15.70;94698.00;;;;5034294;28;20200;-59
2023/08/02 07:11:25;;;;;;;1.03;1.03;;;;;15.60;94701.00;;;;5033558;28;20197;-60
2023/08/02 07:13:53;;;;;;;1.10;1.10;;;;;15.70;94698.00;;;;5033508;28;20311;-61
2023/08/02 07:16:20;;;;;;;0.70;0.70;;;;;15.50;94705.00;;;;5033191;28;20570;-61
2023/08/02 07:18:48;;;;;;;0.70;0.70;;;;;15.40;94703.00;;;;5033322;28;20204;-61
2023/08/02 07:21:16;;;;;;;1.10;1.10;;;;;15.30;94693.00;;;;5033361;28;20544;-60
2023/08/02 07:23:44;;;;;;;1.03;1.03;;;;;15.40;94685.00;;;;5032622;28;20197;-61
2023/08/02 07:26:11;;;;;;;1.40;1.33;;;;;15.30;94689.00;;;;5033185;28;20578;-61
2023/08/02 07:28:39;;;;;;;1.07;1.07;;;;;15.40;94674.00;;;;5033207;28;20189;-61
2023/08/02 07:31:07;;;;;;;0.93;0.93;;;;;15.30;94679.00;;;;5033035;28;20558;-61
2023/08/02 07:33:35;;;;;;;0.77;0.77;;;;;15.40;94665.00;;;;5033608;28;20266;-61
2023/08/02 07:36:03;;;;;;;0.97;0.97;;;;;15.40;94656.00;;;;5031120;28;20591;-61
2023/08/02 07:38:32;;;;;;;1.87;1.10;;;;;15.40;94661.00;;;;5032964;28;20200;-61
2023/08/02 07:41:03;;;;;;;1.23;1.13;;;;;15.70;94655.00;;;;5027464;28;20189;-61
2023/08/02 07:43:31;;;;;;;0.83;0.83;;;;;15.80;94650.00;;;;5032857;28;20286;-61
2023/08/02 07:45:58;;;;;;;0.93;0.93;;;;;16.10;94654.00;;;;5032093;28;20224;-60
2023/08/02 07:48:25;;;;;;;2.20;1.37;;;;;16.20;94653.00;;;;5031594;28;20197;-61
2023/08/02 07:50:53;;;;;;;1.27;1.27;;;;;16.20;94644.00;;;;5033053;28;20615;-61
2023/08/02 07:53:20;;;;;;;2.00;1.07;;;;;16.10;94650.00;;;;5031825;28;20200;-61
2023/08/02 07:55:50;;;;;;;1.13;1.13;;;;;16.10;94647.00;;;;5032331;28;20219;-61
2023/08/02 07:58:18;;;;;;;1.17;1.17;;;;;16.30;94651.00;;;;5031260;28;20251;-61
2023/08/02 08:00:45;;;;;;;0.90;0.90;;;;;16.20;94649.00;;;;5032574;28;20220;-61
2023/08/02 08:03:12;;;;;;;1.87;1.77;;;;;16.30;94657.00;;;;5031771;28;20204;-61
2023/08/02 08:05:41;;;;;;;1.00;1.00;;;;;16.10;94645.00;;;;5031035;28;20197;-61
2023/08/02 08:08:09;;;;;;;1.20;1.20;;;;;16.10;94639.00;;;;5031442;28;20197;-61
2023/08/02 08:10:36;;;;;;;2.53;1.23;;;;;16.20;94633.00;;;;5032097;28;20524;-61
2023/08/02 08:13:05;;;;;;;1.00;1.00;;;;;16.30;94636.00;;;;5032028;28;20536;-61
2023/08/02 08:15:32;;;;;;;0.90;0.90;;;;;16.20;94631.00;;;;5031666;28;20205;-60
2023/08/02 08:18:00;;;;;;;0.80;0.80;;;;;16.30;94627.00;;;;5031685;28;20228;-60
2023/08/02 08:20:27;;;;;;;1.60;1.50;;;;;16.30;94631.00;;;;5031635;28;20207;-61
2023/08/02 08:22:55;;;;;;;1.40;1.33;;;;;16.30;94622.00;;;;5032100;28;20203;-61
2023/08/02 08:25:22;;;;;;;0.70;0.70;;;;;16.40;94621.00;;;;5031869;28;20193;-61
2023/08/02 08:27:50;;;;;;;0.60;0.60;;;;;16.40;94627.00;;;;5031569;28;20220;-61
2023/08/02 08:30:19;;;;;;;1.43;1.33;;;;;16.40;94620.00;;;;5031813;28;20197;-60
2023/08/02 08:32:46;;;;;;;0.40;0.40;;;;;16.40;94621.00;;;;5031288;28;20307;-59
2023/08/02 08:35:14;;;;;;;1.23;1.23;;;;;16.30;94614.00;;;;5030970;28;20221;-59
2023/08/02 08:37:41;;;;;;;1.07;1.07;;;;;16.20;94622.00;;;;5031217;28;20229;-59
2023/08/02 08:40:17;;;;;;;1.27;1.27;;;;;16.30;94615.00;;;;5031628;28;20211;-60
2023/08/02 08:42:52;;;;;;;0.57;0.57;;;;;16.30;94627.00;;;;5031012;28;20203;-60
2023/08/02 08:45:23;;;;;;;5.33;1.67;;;;;16.50;94625.00;;;;5027289;28;20192;-60
2023/08/02 08:47:51;;;;;;;0.60;0.60;;;;;16.50;94621.00;;;;5031448;28;20771;-59
2023/08/02 08:50:21;;;;;;;0.60;0.60;;;;;16.60;94613.00;;;;5031562;28;20200;-59
2023/08/02 08:52:51;;;;;;;0.80;0.80;;;;;16.50;94627.00;;;;5031036;28;20205;-59
2023/08/02 08:55:19;;;;;;;0.90;0.90;;;;;16.50;94618.00;;;;5031388;28;20291;-60
2023/08/02 08:57:50;;;;;;;1.00;1.00;;;;;16.50;94610.00;;;;5030629;28;20686;-60
2023/08/02 09:00:17;;;;;;;1.37;1.27;;;;;16.50;94609.00;;;;5030824;28;20192;-59
2023/08/02 09:02:48;;;;;;;1.50;1.40;;;;;16.40;94618.00;;;;5030516;28;20196;-60
2023/08/02 09:05:16;;;;;;;1.07;1.07;;;;;16.60;94596.00;;;;5031703;28;20185;-59
2023/08/02 09:07:44;;;;;;;0.50;0.50;;;;;16.80;94593.00;;;;5030853;28;20232;-59
2023/08/02 09:10:12;;;;;;;0.50;0.50;;;;;16.80;94589.00;;;;5031606;28;20196;-60
2023/08/02 09:12:46;;;;;;;0.60;0.60;;;;;16.90;94581.00;;;;5028976;28;20200;-60
2023/08/02 09:15:15;;;;;;;0.83;0.83;;;;;17.10;94578.00;;;;5031305;28;20223;-60
2023/08/02 09:17:49;;;;;;;0.70;0.70;;;;;17.40;94571.00;;;;5030842;28;20212;-60
2023/08/02 09:20:18;;;;;;;0.50;0.50;;;;;17.30;94572.00;;;;5032750;28;20250;-60
2023/08/02 09:22:45;;;;;;;0.50;0.50;;;;;17.50;94590.00;;;;5027238;28;20668;-60
2023/08/02 09:25:23;;;;;;;2.27;1.63;;;;;17.60;94578.00;;;;5029522;28;20223;-60
2023/08/02 09:27:51;;;;;;;0.50;0.50;;;;;17.40;94567.00;;;;5029669;28;20213;-60
2023/08/02 09:30:25;;;;;;;1.20;1.20;;;;;17.30;94565.00;;;;5031268;28;20690;-60
2023/08/02 09:33:07;;;;;;;0.87;0.87;;;;;17.90;94564.00;;;;5030203;28;20208;-60
2023/08/02 09:35:48;;;;;;;0.80;0.80;;;;;17.80;94549.00;;;;5030873;28;20220;-60
2023/08/02 09:38:16;;;;;;;0.80;0.80;;;;;17.80;94551.00;;;;5027275;28;20316;-60
2023/08/02 09:40:47;;;;;;;1.00;0.90;;;;;17.90;94550.00;;;;5032485;28;20286;-60
2023/08/02 09:43:16;;;;;;;1.20;1.20;;;;;17.80;94558.00;;;;5032179;28;20192;-60
2023/08/02 09:45:44;;;;;;;1.10;1.10;;;;;17.70;94566.00;;;;5035107;28;20667;-60
2023/08/02 09:48:13;;;;;;;0.87;0.87;;;;;17.60;94546.00;;;;5034012;28;20201;-60
2023/08/02 09:50:54;;;;;;;0.87;0.87;;;;;17.50;94559.00;;;;5034817;28;20224;-59
2023/08/02 09:53:23;;;;;;;2.10;1.23;;;;;17.40;94553.00;;;;5033394;28;20221;-60
2023/08/02 09:55:52;;;;;;;0.93;0.93;;;;;17.50;94560.00;;;;5034660;28;20220;-59
2023/08/02 09:58:21;;;;;;;0.83;0.83;;;;;17.60;94561.00;;;;5029869;28;20204;-59
2023/08/02 10:00:50;;;;;;;0.80;0.80;;;;;17.40;94552.00;;;;5034457;28;20208;-59
2023/08/02 10:03:22;;;;;;;0.87;0.87;;;;;17.20;94550.00;;;;5034405;28;20687;-59
2023/08/02 10:05:50;;;;;;;0.87;0.87;;;;;17.10;94536.00;;;;5035196;28;20282;-59
2023/08/02 10:08:17;;;;;;;0.63;0.63;;;;;17.10;94527.00;;;;5034285;28;20197;-59
2023/08/02 10:10:46;;;;;;;1.23;1.23;;;;;17.10;94531.00;;;;5034123;28;20250;-59
2023/08/02 10:13:19;;;;;;;0.90;0.90;;;;;17.40;94526.00;;;;5034000;28;20200;-59
2023/08/02 10:15:49;;;;;;;0.70;0.70;;;;;17.00;94512.00;;;;5033921;28;20213;-60
2023/08/02 10:18:19;;;;;;;0.93;0.93;;;;;17.30;94510.00;;;;5034392;28;20204;-61
2023/08/02 10:20:47;;;;;;;1.40;1.30;;;;;17.30;94507.00;;;;5033985;28;20223;-60
2023/08/02 10:23:14;;;;;;;1.43;1.33;;;;;17.20;94507.00;;;;5033874;28;20201;-60
2023/08/02 10:25:43;;;;;;;0.80;0.80;;;;;17.50;94504.00;;;;5032263;28;20193;-59
2023/08/02 10:28:12;;;;;;;0.63;0.63;;;;;17.80;94487.00;;;;5034070;28;20220;-59
2023/08/02 10:30:41;;;;;;;1.00;1.00;;;;;18.30;94464.00;;;;5032962;28;20192;-59
2023/08/02 10:33:13;;;;;;;0.63;0.63;;;;;18.60;94478.00;;;;5032917;28;20223;-59
2023/08/02 10:35:58;;;;;;;1.07;1.07;;;;;18.40;94503.00;;;;5033117;28;20220;-58
2023/08/02 10:38:47;;;;;;;0.70;0.70;;;;;18.40;94516.00;;;;5032458;28;20227;-59
2023/08/02 10:41:16;;;;;;;0.50;0.50;;;;;18.30;94493.00;;;;5033954;28;20212;-58
2023/08/02 10:44:14;;;;;;;1.30;1.20;;;;;18.60;94475.00;;;;5033568;28;20204;-58
2023/08/02 10:46:42;;;;;;;0.70;0.70;;;;;18.60;94481.00;;;;5033704;28;20208;-58
2023/08/02 10:49:37;;;;;;;0.60;0.60;;;;;18.70;94467.00;;;;5032755;28;20197;-58
2023/08/02 10:52:24;;;;;;;0.70;0.70;;;;;18.90;94465.00;;;;5033457;28;20205;-59
2023/08/02 10:55:06;;;;;;;0.70;0.70;;;;;19.00;94469.00;;;;5031974;28;20240;-59
2023/08/02 10:57:33;;;;;;;0.60;0.60;;;;;18.90;94466.00;;;;5031865;28;20227;-58
2023/08/02 11:00:01;;;;;;;1.10;1.10;;;;;18.70;94459.00;;;;5033376;28;20203;-59
2023/08/02 11:02:46;;;;;;;1.00;1.00;;;;;18.90;94463.00;;;;5033661;28;20230;-59
2023/08/02 11:05:14;;;;;;;0.70;0.70;;;;;18.90;94457.00;;;;5030854;28;20189;-59
2023/08/02 11:07:43;;;;;;;0.97;0.97;;;;;18.80;94454.00;;;;5032191;28;20624;-59
2023/08/02 11:10:10;;;;;;;0.90;0.90;;;;;18.90;94456.00;;;;5033164;28;20197;-59
2023/08/02 11:12:38;;;;;;;1.70;0.70;;;;;19.20;94439.00;;;;5033681;28;20192;-59
2023/08/02 11:15:16;;;;;;;0.93;0.93;;;;;19.00;94427.00;;;;5033327;28;20228;-59
2023/08/02 11:17:44;;;;;;;0.90;0.90;;;;;19.50;94423.00;;;;5030221;28;20216;-59
2023/08/02 11:20:14;;;;;;;1.10;1.10;;;;;20.00;94402.00;;;;5032805;28;20201;-60
2023/08/02 11:22:43;;;;;;;1.07;1.07;;;;;20.20;94410.00;;;;5032047;28;20239;-60
2023/08/02 11:25:18;;;;;;;1.80;1.60;;;;;20.80;94397.00;;;;5032899;28;20203;-60
2023/08/02 11:27:45;;;;;;;1.83;1.07;;;;;21.00;94407.00;;;;5033563;28;20224;-61
2023/08/02 11:30:13;;;;;;;0.90;0.90;;;;;20.70;94384.00;;;;5032514;28;20203;-60
2023/08/02 11:32:44;;;;;;;0.90;0.90;;;;;21.00;94403.00;;;;5032553;28;20671;-59
2023/08/02 11:35:17;;;;;;;1.43;1.33;;;;;20.80;94382.00;;;;5032594;28;20208;-60
2023/08/02 11:37:46;;;;;;;1.52;1.27;;;;;21.60;94410.00;;;;5033096;28;20271;-60
2023/08/02 11:40:14;;;;;;;0.67;0.67;;;;;21.10;94401.00;;;;5028074;28;20200;-60
2023/08/02 11:42:50;;;;;;;0.60;0.60;;;;;21.10;94407.00;;;;5032833;28;20201;-60
2023/08/02 11:45:29;;;;;;;0.80;0.80;;;;;21.20;94366.00;;;;5032284;28;20258;-61
2023/08/02 11:47:57;;;;;;;0.87;0.87;;;;;21.00;94399.00;;;;5032779;28;20195;-61
2023/08/02 11:50:25;;;;;;;0.93;0.93;;;;;20.80;94402.00;;;;5031211;28;20201;-60
2023/08/02 11:53:03;;;;;;;1.00;0.90;;;;;20.60;94420.00;;;;5032878;28;20204;-60
2023/08/02 11:55:32;;;;;;;0.90;0.90;;;;;20.50;94404.00;;;;5032607;28;20211;-61
2023/08/02 11:58:00;;;;;;;1.23;1.00;;;;;20.50;94409.00;;;;5028032;28;20208;-61
2023/08/02 12:00:27;;;;;;;1.80;0.83;;;;;20.80;94400.00;;;;5032773;28;20201;-60
2023/08/02 12:03:07;;;;;;;1.00;1.00;;;;;20.90;94394.00;;;;5031608;28;20196;-60
2023/08/02 12:05:34;;;;;;;0.83;0.83;;;;;21.20;94384.00;;;;5030841;28;20208;-60
2023/08/02 12:08:11;;;;;;;1.20;1.13;;;;;21.80;94365.00;;;;5032275;28;20710;-60
2023/08/02 12:10:39;;;;;;;0.95;0.95;;;;;22.00;94367.00;;;;5030787;28;20188;-60
2023/08/02 12:13:12;;;;;;;1.35;1.25;;;;;22.10;94384.00;;;;5032149;28;20196;-61
2023/08/02 12:15:40;;;;;;;2.08;1.17;;;;;22.20;94380.00;;;;5032138;28;20240;-60
2023/08/02 12:18:09;;;;;;;1.15;1.10;;;;;22.40;94376.00;;;;5032536;28;20197;-60
2023/08/02 12:20:37;;;;;;;0.77;0.77;;;;;21.90;94367.00;;;;5032207;28;20234;-61
2023/08/02 12:23:05;;;;;;;0.70;0.70;;;;;21.70;94361.00;;;;5032212;28;20201;-59
2023/08/02 12:25:48;;;;;;;0.52;0.52;;;;;21.70;94389.00;;;;5031742;28;20200;-60
2023/08/02 12:28:15;;;;;;;0.98;0.98;;;;;21.70;94373.00;;;;5032099;28;20197;-60